createdAt,value
2019-06-10T00:00:59.993Z,0.70
2019-06-10T00:03:31.751Z,1.17
2019-06-10T00:06:04.095Z,0.30
2019-06-10T00:08:34.842Z,0.50
2019-06-10T00:11:07.469Z,0.90
2019-06-10T00:13:37.278Z,0.50
2019-06-10T00:16:08.082Z,0.60
2019-06-10T00:18:43.081Z,0.60
2019-06-10T00:21:11.419Z,0.60
2019-06-10T00:23:42.811Z,0.80
2019-06-10T00:26:13.295Z,0.70
2019-06-10T00:28:43.957Z,0.57
2019-06-10T00:31:14.819Z,0.60
2019-06-10T00:33:45.500Z,0.70
2019-06-10T00:36:17.143Z,0.80
2019-06-10T00:38:47.536Z,0.60
2019-06-10T00:41:18.520Z,0.50
2019-06-10T00:43:48.845Z,0.73
2019-06-10T00:46:21.195Z,0.70
2019-06-10T00:48:51.440Z,0.70
2019-06-10T00:51:22.508Z,0.67
2019-06-10T00:53:52.958Z,0.60
2019-06-10T00:56:24.138Z,0.57
2019-06-10T00:58:54.283Z,0.60
2019-06-10T01:01:25.310Z,0.70
2019-06-10T01:03:55.855Z,0.77
2019-06-10T01:06:26.164Z,0.90
2019-06-10T01:08:56.709Z,0.90
2019-06-10T01:11:30.861Z,0.80
2019-06-10T01:14:01.470Z,0.90
2019-06-10T01:16:32.476Z,0.80
2019-06-10T01:19:03.799Z,1.27
2019-06-10T01:21:34.523Z,0.73
2019-06-10T01:24:05.082Z,0.73
2019-06-10T01:26:35.628Z,0.65
2019-06-10T01:29:06.270Z,1.17
2019-06-10T01:31:38.461Z,0.85
2019-06-10T01:34:10.034Z,0.82
2019-06-10T01:36:41.266Z,0.90
2019-06-10T01:39:13.551Z,0.50
2019-06-10T01:41:44.125Z,0.87
2019-06-10T01:44:16.471Z,1.20
2019-06-10T01:46:46.877Z,1.00
2019-06-10T01:49:18.192Z,0.80
2019-06-10T01:51:51.577Z,0.90
2019-06-10T01:54:22.581Z,0.93
2019-06-10T01:56:53.339Z,1.10
2019-06-10T01:59:25.092Z,0.80
2019-06-10T02:02:05.726Z,0.72
2019-06-10T02:04:36.493Z,0.80
2019-06-10T02:07:09.202Z,1.10
2019-06-10T02:09:41.099Z,0.60
2019-06-10T02:12:12.811Z,0.70
2019-06-10T02:14:44.106Z,0.90
2019-06-10T02:17:17.610Z,1.00
2019-06-10T02:19:50.908Z,1.00
2019-06-10T02:22:24.221Z,0.93
2019-06-10T02:24:54.467Z,0.73
2019-06-10T02:27:25.408Z,1.03
2019-06-10T02:29:56.405Z,0.90
2019-06-10T02:32:33.043Z,1.07
2019-06-10T02:35:13.094Z,1.20
2019-06-10T02:37:37.746Z,0.88
2019-06-10T02:40:04.771Z,1.10
2019-06-10T02:42:39.173Z,0.80
2019-06-10T02:45:13.779Z,0.80
2019-06-10T02:47:44.414Z,0.97
2019-06-10T02:50:20.971Z,0.90
2019-06-10T02:52:47.747Z,0.80
2019-06-10T02:55:20.333Z,1.03
2019-06-10T02:57:53.184Z,0.97
2019-06-10T03:00:36.096Z,0.73
2019-06-10T03:02:55.291Z,0.93
2019-06-10T03:05:31.430Z,1.27
2019-06-10T03:07:58.528Z,0.80
2019-06-10T03:10:32.818Z,0.90
2019-06-10T03:13:02.428Z,0.80
2019-06-10T03:15:34.416Z,1.10
2019-06-10T03:18:04.855Z,0.82
2019-06-10T03:20:35.050Z,1.30
2019-06-10T03:23:05.860Z,0.70
2019-06-10T03:25:36.230Z,0.90
2019-06-10T03:28:06.430Z,0.93
2019-06-10T03:30:47.994Z,0.87
2019-06-10T03:33:13.510Z,1.30
2019-06-10T03:35:42.572Z,0.90
2019-06-10T03:38:12.643Z,1.00
2019-06-10T03:40:43.454Z,1.27
2019-06-10T03:43:13.801Z,0.97
2019-06-10T03:45:44.182Z,1.07
2019-06-10T03:48:14.380Z,0.90
2019-06-10T03:50:45.035Z,1.03
2019-06-10T03:53:15.413Z,0.90
2019-06-10T03:55:45.432Z,1.00
2019-06-10T03:58:17.478Z,1.10
2019-06-10T04:00:47.975Z,1.60
2019-06-10T04:03:19.351Z,1.27
2019-06-10T04:05:49.868Z,1.00
2019-06-10T04:08:22.437Z,1.20
2019-06-10T04:10:52.701Z,0.70
2019-06-10T04:13:25.412Z,1.30
2019-06-10T04:15:57.643Z,1.13
2019-06-10T04:18:29.355Z,1.27
2019-06-10T04:21:02.378Z,1.20
2019-06-10T04:23:33.528Z,1.00
2019-06-10T04:26:03.730Z,1.07
2019-06-10T04:28:34.515Z,1.00
2019-06-10T04:31:04.994Z,1.00
2019-06-10T04:33:35.229Z,1.10
2019-06-10T04:36:05.818Z,1.10
2019-06-10T04:38:36.710Z,1.25
2019-06-10T04:41:06.833Z,1.20
2019-06-10T04:43:37.645Z,0.97
2019-06-10T04:46:08.446Z,1.07
2019-06-10T04:48:39.293Z,1.12
2019-06-10T04:51:10.129Z,1.12
2019-06-10T04:53:43.262Z,1.20
2019-06-10T04:56:12.839Z,1.02
2019-06-10T04:58:43.508Z,1.27
2019-06-10T05:01:13.638Z,1.30
2019-06-10T05:03:44.659Z,1.13
2019-06-10T05:06:15.289Z,1.17
2019-06-10T05:08:46.088Z,1.40
2019-06-10T05:11:16.507Z,1.43
2019-06-10T05:13:47.053Z,1.30
2019-06-10T05:16:19.576Z,1.10
2019-06-10T05:18:52.398Z,1.70
2019-06-10T05:21:25.081Z,1.20
2019-06-10T05:23:54.897Z,1.27
2019-06-10T05:26:26.938Z,1.40
2019-06-10T05:28:57.891Z,1.30
2019-06-10T05:31:31.016Z,1.40
2019-06-10T05:34:03.033Z,1.30
2019-06-10T05:36:34.724Z,1.30
2019-06-10T05:39:07.413Z,1.32
2019-06-10T05:41:37.864Z,1.07
2019-06-10T05:44:08.365Z,1.17
2019-06-10T05:46:38.977Z,1.23
2019-06-10T05:49:09.691Z,1.50
2019-06-10T05:51:42.372Z,2.00
2019-06-10T05:54:12.910Z,1.57
2019-06-10T05:56:43.744Z,1.47
2019-06-10T05:59:14.465Z,1.60
2019-06-10T06:01:44.614Z,1.57
2019-06-10T06:04:15.605Z,1.27
2019-06-10T06:06:45.948Z,1.33
2019-06-10T06:09:16.524Z,1.67
2019-06-10T06:11:47.623Z,1.50
2019-06-10T06:14:17.946Z,1.40
2019-06-10T06:16:48.176Z,1.90
2019-06-10T06:19:18.003Z,1.20
2019-06-10T06:21:49.600Z,1.17
2019-06-10T06:24:22.040Z,1.73
2019-06-10T06:26:53.389Z,1.70
2019-06-10T06:29:24.627Z,2.00
2019-06-10T06:31:55.220Z,1.90
2019-06-10T06:34:26.861Z,1.80
2019-06-10T06:36:57.623Z,1.87
2019-06-10T06:39:29.009Z,1.53
2019-06-10T06:42:02.123Z,1.63
2019-06-10T06:44:33.660Z,1.57
2019-06-10T06:47:04.140Z,1.80
2019-06-10T06:49:36.984Z,1.80
2019-06-10T06:52:07.554Z,1.72
2019-06-10T06:54:39.362Z,1.70
2019-06-10T06:57:12.894Z,1.97
2019-06-10T06:59:43.308Z,2.15
2019-06-10T07:02:16.237Z,2.15
2019-06-10T07:04:47.709Z,2.00
2019-06-10T07:07:18.100Z,1.77
2019-06-10T07:09:52.532Z,1.93
2019-06-10T07:12:24.748Z,1.63
2019-06-10T07:14:55.226Z,2.30
2019-06-10T07:17:25.572Z,2.00
2019-06-10T07:19:57.646Z,1.83
2019-06-10T07:22:28.974Z,2.00
2019-06-10T07:25:04.133Z,1.87
2019-06-10T07:27:35.841Z,1.70
2019-06-10T07:30:11.647Z,2.00
2019-06-10T07:32:41.538Z,2.35
2019-06-10T07:35:12.996Z,1.80
2019-06-10T07:37:45.569Z,2.00
2019-06-10T07:40:16.360Z,1.98
2019-06-10T07:42:46.889Z,2.08
2019-06-10T07:45:17.114Z,1.42
2019-06-10T07:47:47.324Z,2.12
2019-06-10T07:50:18.128Z,1.90
2019-06-10T07:52:49.232Z,2.43
2019-06-10T07:55:22.074Z,2.00
2019-06-10T07:57:53.045Z,2.10
2019-06-10T08:00:23.622Z,2.43
2019-06-10T08:02:54.330Z,2.13
2019-06-10T08:05:25.033Z,2.13
2019-06-10T08:07:55.910Z,2.03
2019-06-10T08:10:26.434Z,2.13
2019-06-10T08:12:57.261Z,2.43
2019-06-10T08:15:28.051Z,1.90
2019-06-10T08:17:59.211Z,2.50
2019-06-10T08:20:47.888Z,2.27
2019-06-10T08:23:19.238Z,2.40
2019-06-10T08:25:54.571Z,2.20
2019-06-10T08:28:23.046Z,1.60
2019-06-10T08:30:54.118Z,2.10
2019-06-10T08:33:24.504Z,2.27
2019-06-10T08:36:00.251Z,2.13
2019-06-10T08:38:28.053Z,1.97
2019-06-10T08:40:58.981Z,2.17
2019-06-10T08:43:29.888Z,2.03
2019-06-10T08:46:02.594Z,2.50
2019-06-10T08:48:33.119Z,2.40
2019-06-10T08:51:05.859Z,2.93
2019-06-10T08:53:37.868Z,2.83
2019-06-10T08:56:08.461Z,2.33
2019-06-10T08:58:40.913Z,4.13
2019-06-10T09:01:13.314Z,3.40
2019-06-10T09:03:47.728Z,2.80
2019-06-10T09:06:19.722Z,2.67
2019-06-10T09:08:54.141Z,2.90
2019-06-10T09:11:24.237Z,3.50
2019-06-10T09:13:55.729Z,3.43
2019-06-10T09:16:26.715Z,3.33
2019-06-10T09:18:57.287Z,2.50
2019-06-10T09:21:28.136Z,3.07
2019-06-10T09:24:00.737Z,3.50
2019-06-10T09:26:33.714Z,3.23
2019-06-10T09:29:05.301Z,3.03
2019-06-10T09:31:36.050Z,2.33
2019-06-10T09:34:07.793Z,2.83
2019-06-10T09:36:40.965Z,2.47
2019-06-10T09:39:13.084Z,2.80
2019-06-10T09:41:54.270Z,2.70
2019-06-10T09:44:33.513Z,2.40
2019-06-10T09:47:05.920Z,2.37
2019-06-10T09:49:36.583Z,2.70
2019-06-10T09:52:08.063Z,2.60
2019-06-10T09:54:41.624Z,2.00
2019-06-10T09:57:12.643Z,1.83
2019-06-10T09:59:46.532Z,2.10
2019-06-10T10:02:17.650Z,2.50
2019-06-10T10:04:52.535Z,2.45
2019-06-10T10:07:22.611Z,2.13
2019-06-10T10:09:57.156Z,1.92
2019-06-10T10:12:26.873Z,2.83
2019-06-10T10:14:58.511Z,2.03
2019-06-10T10:17:33.220Z,2.70
2019-06-10T10:20:03.331Z,2.27
2019-06-10T10:22:34.462Z,2.60
2019-06-10T10:25:06.338Z,2.97
2019-06-10T10:27:37.489Z,2.77
2019-06-10T10:30:08.754Z,2.83
2019-06-10T10:32:44.304Z,2.63
2019-06-10T10:35:12.785Z,2.40
2019-06-10T10:37:48.493Z,2.87
2019-06-10T10:40:19.916Z,2.17
2019-06-10T10:42:59.195Z,2.20
2019-06-10T10:45:24.049Z,2.87
2019-06-10T10:47:57.446Z,2.98
2019-06-10T10:50:27.221Z,2.40
2019-06-10T10:52:57.742Z,3.67
2019-06-10T10:55:28.221Z,2.97
2019-06-10T10:57:58.766Z,3.10
2019-06-10T11:00:41.381Z,3.47
2019-06-10T11:03:13.383Z,2.93
2019-06-10T11:05:47.624Z,3.17
2019-06-10T11:08:16.422Z,3.43
2019-06-10T11:10:49.175Z,3.43
2019-06-10T11:13:22.273Z,2.75
2019-06-10T11:15:55.389Z,3.10
2019-06-10T11:18:24.822Z,3.00
2019-06-10T11:20:55.624Z,3.42
2019-06-10T11:23:26.671Z,3.40
2019-06-10T11:26:00.151Z,4.00
2019-06-10T11:28:32.193Z,3.30
2019-06-10T11:31:03.810Z,3.37
2019-06-10T11:33:34.906Z,3.92
2019-06-10T11:36:05.969Z,3.42
2019-06-10T11:38:36.919Z,3.50
2019-06-10T11:41:07.656Z,3.72
2019-06-10T11:43:38.358Z,3.72
2019-06-10T11:46:09.007Z,3.62
2019-06-10T11:48:40.356Z,3.30
2019-06-10T11:51:12.991Z,2.90
2019-06-10T11:53:43.950Z,3.40
2019-06-10T11:56:16.665Z,2.98
2019-06-10T11:58:48.006Z,2.70
2019-06-10T12:01:18.267Z,3.00
2019-06-10T12:03:48.469Z,2.98
2019-06-10T12:06:19.062Z,2.90
2019-06-10T12:08:53.580Z,3.05
2019-06-10T12:11:23.964Z,2.77
2019-06-10T12:14:01.863Z,3.10
2019-06-10T12:17:15.614Z,2.50
2019-06-10T12:19:00.712Z,2.40
2019-06-10T12:21:33.066Z,2.80
2019-06-10T12:24:03.846Z,2.63
2019-06-10T12:26:34.848Z,2.30
2019-06-10T12:29:06.033Z,2.33
2019-06-10T12:31:36.383Z,2.50
2019-06-10T12:34:06.784Z,2.08
2019-06-10T12:36:37.274Z,2.37
2019-06-10T12:39:10.812Z,2.50
2019-06-10T12:41:43.093Z,2.62
2019-06-10T12:44:13.778Z,2.17
2019-06-10T12:46:44.713Z,2.22
2019-06-10T12:49:18.307Z,2.33
2019-06-10T12:51:47.114Z,3.10
2019-06-10T12:54:18.042Z,2.37
2019-06-10T12:56:49.400Z,2.60
2019-06-10T12:59:19.181Z,2.40
2019-06-10T13:01:49.842Z,2.47
2019-06-10T13:04:20.980Z,2.20
2019-06-10T13:06:52.558Z,2.95
2019-06-10T13:09:24.572Z,2.67
2019-06-10T13:11:55.629Z,3.00
2019-06-10T13:14:26.099Z,2.55
2019-06-10T13:16:57.959Z,2.25
2019-06-10T13:19:33.640Z,2.85
2019-06-10T13:22:05.957Z,2.30
2019-06-10T13:24:36.689Z,2.40
2019-06-10T13:27:08.333Z,2.35
2019-06-10T13:29:39.383Z,2.30
2019-06-10T13:32:09.817Z,2.17
2019-06-10T13:34:42.451Z,2.35
2019-06-10T13:37:16.213Z,2.55
2019-06-10T13:39:45.363Z,2.45
2019-06-10T13:42:15.107Z,2.42
2019-06-10T13:44:45.509Z,2.20
2019-06-10T13:47:17.550Z,2.30
2019-06-10T13:49:48.021Z,2.72
2019-06-10T13:52:18.958Z,2.42
2019-06-10T13:54:49.717Z,2.65
2019-06-10T13:57:22.876Z,2.50
2019-06-10T13:59:52.977Z,2.50
2019-06-10T14:02:24.928Z,2.20
2019-06-10T14:04:56.525Z,2.10
2019-06-10T14:07:27.242Z,2.47
2019-06-10T14:09:58.042Z,2.22
2019-06-10T14:12:28.328Z,2.30
2019-06-10T14:14:59.189Z,2.25
2019-06-10T14:17:29.917Z,2.70
2019-06-10T14:20:01.739Z,2.30
2019-06-10T14:22:32.931Z,2.40
2019-06-10T14:25:06.454Z,1.85
2019-06-10T14:27:35.772Z,2.27
2019-06-10T14:30:07.866Z,1.98
2019-06-10T14:32:42.576Z,2.05
2019-06-10T14:35:17.218Z,2.10
2019-06-10T14:37:45.792Z,2.33
2019-06-10T14:40:21.074Z,2.08
2019-06-10T14:42:48.401Z,1.77
2019-06-10T14:45:39.227Z,2.40
2019-06-10T14:48:10.826Z,2.12
2019-06-10T14:50:43.495Z,1.75
2019-06-10T14:53:15.646Z,2.30
2019-06-10T14:55:47.702Z,2.37
2019-06-10T14:58:19.407Z,1.82
2019-06-10T15:00:53.713Z,2.08
2019-06-10T15:03:22.960Z,2.02
2019-06-10T15:05:54.348Z,2.20
2019-06-10T15:08:25.302Z,2.35
2019-06-10T15:10:55.982Z,2.65
2019-06-10T15:13:26.397Z,2.12
2019-06-10T15:15:57.550Z,1.80
2019-06-10T15:18:28.252Z,2.10
2019-06-10T15:20:58.997Z,2.00
2019-06-10T15:23:29.507Z,2.03
2019-06-10T15:26:02.561Z,1.85
2019-06-10T15:28:32.909Z,1.75
2019-06-10T15:31:03.301Z,2.10
2019-06-10T15:33:34.088Z,1.95
2019-06-10T15:36:09.324Z,1.80
2019-06-10T15:38:39.913Z,1.90
2019-06-10T15:41:15.635Z,1.93
2019-06-10T15:43:43.107Z,2.22
2019-06-10T15:46:15.864Z,1.60
2019-06-10T15:48:46.652Z,2.07
2019-06-10T15:51:19.859Z,1.90
2019-06-10T15:53:49.489Z,2.17
2019-06-10T15:56:31.309Z,2.40
2019-06-10T15:58:55.308Z,2.00
2019-06-10T16:01:27.443Z,1.75
2019-06-10T16:03:58.026Z,2.08
2019-06-10T16:06:29.382Z,1.80
2019-06-10T16:08:59.898Z,1.53
2019-06-10T16:11:33.087Z,2.15
2019-06-10T16:14:04.434Z,2.77
2019-06-10T16:16:36.140Z,1.80
2019-06-10T16:19:06.728Z,1.97
2019-06-10T16:21:39.690Z,6.92
2019-06-10T16:24:15.513Z,1.90
2019-06-10T16:26:47.068Z,2.00
2019-06-10T16:29:19.058Z,1.82
2019-06-10T16:31:52.757Z,1.50
2019-06-10T16:34:27.366Z,2.15
2019-06-10T16:36:56.905Z,1.45
2019-06-10T16:39:28.713Z,3.07
2019-06-10T16:41:59.773Z,2.33
2019-06-10T16:44:32.800Z,1.83
2019-06-10T16:47:03.627Z,1.75
2019-06-10T16:49:34.265Z,2.33
2019-06-10T16:52:04.998Z,1.55
2019-06-10T16:54:36.028Z,1.75
2019-06-10T16:57:06.673Z,1.70
2019-06-10T16:59:37.405Z,1.70
2019-06-10T17:02:07.828Z,2.03
2019-06-10T17:04:38.446Z,2.37
2019-06-10T17:07:08.341Z,1.70
2019-06-10T17:09:39.314Z,2.05
2019-06-10T17:12:09.627Z,1.65
2019-06-10T17:14:42.788Z,3.37
2019-06-10T17:17:13.624Z,4.25
2019-06-10T17:19:44.819Z,3.62
2019-06-10T17:22:15.747Z,2.40
2019-06-10T17:24:46.789Z,7.35
2019-06-10T17:27:17.591Z,1.90
2019-06-10T17:29:48.752Z,2.55
2019-06-10T17:32:19.768Z,3.00
2019-06-10T17:34:52.598Z,2.12
2019-06-10T17:37:24.400Z,1.60
2019-06-10T17:39:55.323Z,2.13
2019-06-10T17:42:30.910Z,2.00
2019-06-10T17:44:58.098Z,2.40
2019-06-10T17:50:16.384Z,2.02
2019-06-10T17:52:47.233Z,1.87
2019-06-10T17:55:17.628Z,2.27
2019-06-10T17:57:48.021Z,1.95
2019-06-10T18:00:19.548Z,2.05
2019-06-10T18:02:50.142Z,1.73
2019-06-10T18:05:23.743Z,2.20
2019-06-10T18:07:54.636Z,1.95
2019-06-10T18:10:25.583Z,1.90
2019-06-10T18:12:56.015Z,2.47
2019-06-10T18:15:26.287Z,2.22
2019-06-10T18:17:56.908Z,1.70
2019-06-10T18:20:28.868Z,2.33
2019-06-10T18:22:59.495Z,2.12
2019-06-10T18:25:30.871Z,1.87
2019-06-10T18:28:02.878Z,2.30
2019-06-10T18:30:37.321Z,2.00
2019-06-10T18:33:07.474Z,1.90
2019-06-10T18:35:37.960Z,2.00
2019-06-10T18:38:08.657Z,2.15
2019-06-10T18:40:39.869Z,1.45
2019-06-10T18:43:12.157Z,2.22
2019-06-10T18:45:44.060Z,1.98
2019-06-10T18:48:15.111Z,2.00
2019-06-10T18:50:45.682Z,2.50
2019-06-10T18:53:16.769Z,2.20
2019-06-10T18:55:47.343Z,1.60
2019-06-10T18:58:18.223Z,2.10
2019-06-10T19:01:00.844Z,1.95
2019-06-10T19:03:23.270Z,2.33
2019-06-10T19:05:53.801Z,2.20
2019-06-10T19:08:23.647Z,2.03
2019-06-10T19:10:53.887Z,2.70
2019-06-10T19:13:24.517Z,2.40
2019-06-10T19:15:55.177Z,1.97
2019-06-10T19:18:25.762Z,1.97
2019-06-10T19:20:56.842Z,2.13
2019-06-10T19:23:27.470Z,2.43
2019-06-10T19:25:58.500Z,2.57
2019-06-10T19:28:30.536Z,2.23
2019-06-10T19:31:02.707Z,2.13
2019-06-10T19:33:35.893Z,2.67
2019-06-10T19:36:09.609Z,2.10
2019-06-10T19:38:42.891Z,2.20
2019-06-10T19:41:13.041Z,2.40
2019-06-10T19:43:45.464Z,2.30
2019-06-10T19:46:17.285Z,1.80
2019-06-10T19:48:57.188Z,2.10
2019-06-10T19:51:20.069Z,1.75
2019-06-10T19:53:52.749Z,1.90
2019-06-10T19:56:26.276Z,2.07
2019-06-10T19:58:55.081Z,1.43
2019-06-10T20:01:25.631Z,2.43
2019-06-10T20:03:56.512Z,1.90
2019-06-10T20:06:26.356Z,1.53
2019-06-10T20:08:57.118Z,1.83
2019-06-10T20:11:27.525Z,2.13
2019-06-10T20:13:58.457Z,1.67
2019-06-10T20:16:29.523Z,1.60
2019-06-10T20:19:02.848Z,1.40
2019-06-10T20:21:33.071Z,1.50
2019-06-10T20:24:03.670Z,1.80
2019-06-10T20:26:34.289Z,1.50
2019-06-10T20:29:05.030Z,1.60
2019-06-10T20:31:35.814Z,1.87
2019-06-10T20:34:06.400Z,1.90
2019-06-10T20:36:37.403Z,1.60
2019-06-10T20:39:09.384Z,2.33
2019-06-10T20:41:44.300Z,1.70
2019-06-10T20:44:13.182Z,1.30
2019-06-10T20:46:46.175Z,1.77
2019-06-10T20:49:17.082Z,1.90
2019-06-10T20:52:01.357Z,1.57
2019-06-10T20:54:20.390Z,1.70
2019-06-10T20:56:53.304Z,1.90
2019-06-10T20:59:26.223Z,2.13
2019-06-10T21:02:07.017Z,2.23
2019-06-10T21:04:39.013Z,2.00
2019-06-10T21:07:19.952Z,2.47
2019-06-10T21:10:12.900Z,2.30
2019-06-10T21:12:44.912Z,2.07
2019-06-10T21:15:37.153Z,3.20
2019-06-10T21:18:13.564Z,2.40
2019-06-10T21:20:56.428Z,2.70
2019-06-10T21:23:29.530Z,3.17
2019-06-10T21:26:02.841Z,2.03
2019-06-10T21:28:36.618Z,2.37
2019-06-10T21:31:07.255Z,2.43
2019-06-10T21:33:37.977Z,2.53
2019-06-10T21:36:08.729Z,2.55
2019-06-10T21:38:39.590Z,4.03
2019-06-10T21:41:12.349Z,2.77
2019-06-10T21:43:49.423Z,3.10
2019-06-10T21:46:14.984Z,2.47
2019-06-10T21:48:47.400Z,3.10
2019-06-10T21:51:18.768Z,2.53
2019-06-10T21:53:51.292Z,3.77
2019-06-10T21:56:22.935Z,2.37
2019-06-10T21:58:55.581Z,2.13
2019-06-10T22:01:26.660Z,2.20
2019-06-10T22:04:00.733Z,2.77
2019-06-10T22:06:29.442Z,2.20
2019-06-10T22:09:00.329Z,3.27
2019-06-10T22:11:30.863Z,2.87
2019-06-10T22:14:02.795Z,2.67
2019-06-10T22:16:33.676Z,3.03
2019-06-10T22:19:04.130Z,3.08
2019-06-10T22:21:34.489Z,3.40
2019-06-10T22:24:05.275Z,2.57
2019-06-10T22:26:36.662Z,3.10
2019-06-10T22:29:07.435Z,2.70
2019-06-10T22:31:38.563Z,2.57
2019-06-10T22:34:08.942Z,2.90
2019-06-10T22:36:42.229Z,2.90
2019-06-10T22:39:12.592Z,2.63
2019-06-10T22:41:43.325Z,2.80
2019-06-10T22:44:13.448Z,2.87
2019-06-10T22:46:44.120Z,2.87
2019-06-10T22:49:15.319Z,2.20
2019-06-10T22:51:48.016Z,2.90
2019-06-10T22:54:20.088Z,2.63
2019-06-10T22:56:51.955Z,2.80
2019-06-10T22:59:22.990Z,2.93
2019-06-10T23:01:54.926Z,2.53
2019-06-10T23:04:25.410Z,2.80
2019-06-10T23:06:57.681Z,2.87
2019-06-10T23:09:29.588Z,2.50
2019-06-10T23:12:00.004Z,2.62
2019-06-10T23:14:30.408Z,1.93
2019-06-10T23:17:03.014Z,2.97
2019-06-10T23:19:34.626Z,1.83
2019-06-10T23:22:05.203Z,2.87
2019-06-10T23:24:35.822Z,2.07
2019-06-10T23:27:06.495Z,2.53
2019-06-10T23:29:36.875Z,2.30
2019-06-10T23:32:07.447Z,2.40
2019-06-10T23:34:38.081Z,2.80
2019-06-10T23:37:08.478Z,2.60
2019-06-10T23:39:42.441Z,2.40
2019-06-10T23:42:12.450Z,2.57
2019-06-10T23:44:43.511Z,2.53
2019-06-10T23:47:14.126Z,2.97
2019-06-10T23:49:45.229Z,2.43
2019-06-10T23:52:16.484Z,2.60
2019-06-10T23:54:45.578Z,2.73
2019-06-10T23:57:16.039Z,2.63
2019-06-10T23:59:47.095Z,2.13
